DBBB/COO METAR and TAF weather

Enter ICAO airport designator
Station Type Date Time Source
DBBB METAR 2018/10/21 03:00 UTC NOAA

DBBB 210300Z 23007KT 9999 TS SCT011 FEW023CB 27/25 Q1008 NOSIG


Station Type Date Time Source
DBBB Decoded METAR 2018/10/21 03:00 UTC NOAA

Cotonou, Benin (DBBB) 06-21N 002-23E 9M
Oct 20, 2018 - 11:00 PM EDT / 2018.10.21 0300 UTC
Wind: from the SW (230 degrees) at 8 MPH (7 KT):0
Visibility: greater than 7 mile(s):0
Sky conditions: partly cloudy
Weather: thunder; Cumulonimbus clouds observed
Temperature: 80 F (27 C)
Dew Point: 77 F (25 C)
Relative Humidity: 88%
Pressure (altimeter): 29.77 in. Hg (1008 hPa)
ob: DBBB 210300Z 23007KT 9999 TS SCT011 FEW023CB 27/25 Q1008 NOSIG
cycle: 3

Station Type Date Time Source
DBBB TAF 2018/10/21 04:37 UTC NOAA

TAF
AMD DBBB 210327Z 2104/2206 22010KT 9999 SCT013
TEMPO 2103/2110 3000 TSRA BKN010 FEW023CB
TEMPO 2110/2114 TS BKN012 FEW023CB


Example: see airport list